createdAt,value
2023-02-19T00:01:47.406Z,84.50
2023-02-19T00:04:19.312Z,84.50
2023-02-19T00:06:46.623Z,84.60
2023-02-19T00:09:14.486Z,84.60
2023-02-19T00:11:41.814Z,84.70
2023-02-19T00:14:08.794Z,84.70
2023-02-19T00:16:39.637Z,84.80
2023-02-19T00:19:08.111Z,84.80
2023-02-19T00:21:35.439Z,84.80
2023-02-19T00:24:04.503Z,84.90
2023-02-19T00:26:31.968Z,85.00
2023-02-19T00:28:59.006Z,85.00
2023-02-19T00:31:32.823Z,85.10
2023-02-19T00:34:01.561Z,85.20
2023-02-19T00:36:28.693Z,85.20
2023-02-19T00:38:55.665Z,85.20
2023-02-19T00:41:23.054Z,85.10
2023-02-19T00:43:52.748Z,85.10
2023-02-19T00:46:30.358Z,85.00
2023-02-19T00:48:57.706Z,84.90
2023-02-19T00:51:31.566Z,84.80
2023-02-19T00:53:58.499Z,84.80
2023-02-19T00:56:25.449Z,84.80
2023-02-19T00:58:52.914Z,84.70
2023-02-19T01:01:19.956Z,84.80
2023-02-19T01:03:47.210Z,84.80
2023-02-19T01:06:15.625Z,85.00
2023-02-19T01:08:42.627Z,85.00
2023-02-19T01:11:10.409Z,85.10
2023-02-19T01:13:37.716Z,85.10
2023-02-19T01:16:17.943Z,85.20
2023-02-19T01:18:45.181Z,85.20
2023-02-19T01:21:37.820Z,85.20
2023-02-19T01:24:04.806Z,85.80
2023-02-19T01:26:32.520Z,85.30
2023-02-19T01:29:00.265Z,85.40
2023-02-19T01:31:27.457Z,85.50
2023-02-19T01:33:56.411Z,85.50
2023-02-19T01:36:23.489Z,85.50
2023-02-19T01:38:50.522Z,85.40
2023-02-19T01:41:19.584Z,85.30
2023-02-19T01:44:29.122Z,85.30
2023-02-19T01:46:58.903Z,85.30
2023-02-19T01:49:30.622Z,85.20
2023-02-19T01:52:13.170Z,85.10
2023-02-19T01:54:41.018Z,85.00
2023-02-19T01:57:10.709Z,84.80
2023-02-19T01:59:38.373Z,84.80
2023-02-19T02:02:05.401Z,84.80
2023-02-19T02:04:32.816Z,84.80
2023-02-19T02:07:00.982Z,85.00
2023-02-19T02:09:47.554Z,85.00
2023-02-19T02:12:14.602Z,85.10
2023-02-19T02:14:43.831Z,85.10
2023-02-19T02:17:29.065Z,85.20
2023-02-19T02:20:04.952Z,85.60
2023-02-19T02:22:41.625Z,85.30
2023-02-19T02:25:41.349Z,85.30
2023-02-19T02:28:42.496Z,85.40
2023-02-19T02:31:17.816Z,85.40
2023-02-19T02:33:57.751Z,85.50
2023-02-19T02:36:32.123Z,85.60
2023-02-19T02:38:59.103Z,85.60
2023-02-19T02:41:25.970Z,85.70
2023-02-19T02:43:52.968Z,85.70
2023-02-19T02:46:24.867Z,85.70
2023-02-19T02:48:55.583Z,85.80
2023-02-19T02:51:39.065Z,85.80
2023-02-19T02:54:29.423Z,85.90
2023-02-19T02:56:56.682Z,85.90
2023-02-19T02:59:25.567Z,86.00
2023-02-19T03:02:19.991Z,86.00
2023-02-19T03:05:05.728Z,86.00
2023-02-19T03:07:44.494Z,86.00
2023-02-19T03:10:13.875Z,86.00
2023-02-19T03:12:59.586Z,86.00
2023-02-19T03:16:02.528Z,86.00
2023-02-19T03:18:48.651Z,86.00
2023-02-19T03:21:16.296Z,86.00
2023-02-19T03:24:01.900Z,86.00
2023-02-19T03:26:28.909Z,86.00
2023-02-19T03:29:14.132Z,86.00
2023-02-19T03:31:43.834Z,86.00
2023-02-19T03:34:15.660Z,86.00
2023-02-19T03:36:48.454Z,85.90
2023-02-19T03:39:17.532Z,85.90
2023-02-19T03:42:00.570Z,85.80
2023-02-19T03:44:41.874Z,85.80
2023-02-19T03:47:29.256Z,85.60
2023-02-19T03:50:00.969Z,85.50
2023-02-19T03:52:59.998Z,85.50
2023-02-19T03:55:31.072Z,85.50
2023-02-19T03:58:03.748Z,85.60
2023-02-19T04:00:45.411Z,85.60
2023-02-19T04:03:41.794Z,85.70
2023-02-19T04:06:12.408Z,85.70
2023-02-19T04:08:39.351Z,85.80
2023-02-19T04:11:06.386Z,85.80
2023-02-19T04:13:45.207Z,85.80
2023-02-19T04:16:24.652Z,85.90
2023-02-19T04:18:53.031Z,85.90
2023-02-19T04:21:20.067Z,86.00
2023-02-19T04:23:47.097Z,86.00
2023-02-19T04:26:14.062Z,86.10
2023-02-19T04:28:41.169Z,86.10
2023-02-19T04:31:08.146Z,86.10
2023-02-19T04:33:35.250Z,86.10
2023-02-19T04:36:02.232Z,86.00
2023-02-19T04:38:29.114Z,86.00
2023-02-19T04:40:56.073Z,85.90
2023-02-19T04:43:23.002Z,85.80
2023-02-19T04:45:49.912Z,85.70
2023-02-19T04:48:16.975Z,85.60
2023-02-19T04:50:43.902Z,85.50
2023-02-19T04:53:10.812Z,85.40
2023-02-19T04:55:38.861Z,85.30
2023-02-19T04:58:05.885Z,85.20
2023-02-19T05:00:34.157Z,85.10
2023-02-19T05:03:01.598Z,85.00
2023-02-19T05:05:28.611Z,84.90
2023-02-19T05:07:55.522Z,84.80
2023-02-19T05:10:22.487Z,84.70
2023-02-19T05:12:49.411Z,84.60
2023-02-19T05:15:16.429Z,84.50
2023-02-19T05:17:43.371Z,84.40
2023-02-19T05:20:14.168Z,84.40
2023-02-19T05:22:41.059Z,84.30
2023-02-19T05:25:08.096Z,84.10
2023-02-19T05:27:35.066Z,84.10
2023-02-19T05:30:02.226Z,84.10
2023-02-19T05:32:29.235Z,84.00
2023-02-19T05:34:56.293Z,84.00
2023-02-19T05:37:23.370Z,84.00
2023-02-19T05:39:50.400Z,84.00
2023-02-19T05:42:17.432Z,84.00
2023-02-19T05:44:44.605Z,84.00
2023-02-19T05:47:11.584Z,84.00
2023-02-19T05:49:38.598Z,84.00
2023-02-19T05:52:05.764Z,84.00
2023-02-19T05:54:32.704Z,84.00
2023-02-19T05:56:59.832Z,84.00
2023-02-19T05:59:27.184Z,84.00
2023-02-19T06:01:54.573Z,84.00
2023-02-19T06:04:21.678Z,84.00
2023-02-19T06:06:48.862Z,84.00
2023-02-19T06:09:15.941Z,83.90
2023-02-19T06:11:43.728Z,83.90
2023-02-19T06:14:12.564Z,83.90
2023-02-19T06:16:39.472Z,84.10
2023-02-19T06:19:06.442Z,83.90
2023-02-19T06:21:33.462Z,83.90
2023-02-19T06:24:06.031Z,83.90
2023-02-19T06:26:33.203Z,83.90
2023-02-19T06:29:00.395Z,83.90
2023-02-19T06:31:27.474Z,83.90
2023-02-19T06:33:57.239Z,83.90
2023-02-19T06:36:24.365Z,83.90
2023-02-19T06:38:51.457Z,83.80
2023-02-19T06:41:18.602Z,83.80
2023-02-19T06:43:46.715Z,83.90
2023-02-19T06:46:13.842Z,83.90
2023-02-19T06:48:41.859Z,84.00
2023-02-19T06:51:11.881Z,84.00
2023-02-19T06:53:39.058Z,84.00
2023-02-19T06:56:31.016Z,84.00
2023-02-19T06:59:02.113Z,84.00
2023-02-19T07:01:32.951Z,84.00
2023-02-19T07:04:00.265Z,84.00
2023-02-19T07:06:27.518Z,84.10
2023-02-19T07:08:55.279Z,84.10
2023-02-19T07:11:22.254Z,84.10
2023-02-19T07:13:54.228Z,84.10
2023-02-19T07:16:21.169Z,84.10
2023-02-19T07:18:48.118Z,84.20
2023-02-19T07:21:15.631Z,84.10
2023-02-19T07:23:43.324Z,84.10
2023-02-19T07:26:11.574Z,84.10
2023-02-19T07:28:40.028Z,84.10
2023-02-19T07:31:07.017Z,84.10
2023-02-19T07:33:34.070Z,84.00
2023-02-19T07:36:01.000Z,84.00
2023-02-19T07:38:28.553Z,83.90
2023-02-19T07:41:02.776Z,83.80
2023-02-19T07:43:31.318Z,83.80
2023-02-19T07:45:58.341Z,83.80
2023-02-19T07:48:25.366Z,83.70
2023-02-19T07:50:56.028Z,83.70
2023-02-19T07:53:23.522Z,83.50
2023-02-19T07:55:50.707Z,83.50
2023-02-19T07:58:17.653Z,83.50
2023-02-19T08:00:44.716Z,83.40
2023-02-19T08:03:11.891Z,83.30
2023-02-19T08:05:40.769Z,83.30
2023-02-19T08:08:13.203Z,83.20
2023-02-19T08:10:59.138Z,83.20
2023-02-19T08:13:26.773Z,83.10
2023-02-19T08:16:29.790Z,83.10
2023-02-19T08:19:04.385Z,83.00
2023-02-19T08:21:34.150Z,83.00
2023-02-19T08:24:01.292Z,83.00
2023-02-19T08:26:28.261Z,82.90
2023-02-19T08:28:55.200Z,82.90
2023-02-19T08:31:22.425Z,82.80
2023-02-19T08:33:49.403Z,82.80
2023-02-19T08:36:16.396Z,82.70
2023-02-19T08:38:43.300Z,82.60
2023-02-19T08:41:12.900Z,82.50
2023-02-19T08:43:40.802Z,82.50
2023-02-19T08:46:10.172Z,82.50
2023-02-19T08:48:37.644Z,82.40
2023-02-19T08:51:08.460Z,82.40
2023-02-19T08:53:38.526Z,82.30
2023-02-19T08:56:07.078Z,82.20
2023-02-19T08:58:34.733Z,82.20
2023-02-19T09:01:01.831Z,82.20
2023-02-19T09:03:31.773Z,82.10
2023-02-19T09:05:58.817Z,82.60
2023-02-19T09:08:25.780Z,82.00
2023-02-19T09:11:03.588Z,82.00
2023-02-19T09:13:30.788Z,82.00
2023-02-19T09:15:57.945Z,81.80
2023-02-19T09:18:34.096Z,81.70
2023-02-19T09:21:06.803Z,81.80
2023-02-19T09:23:34.577Z,81.70
2023-02-19T09:26:03.338Z,81.70
2023-02-19T09:28:30.274Z,81.60
2023-02-19T09:30:57.280Z,81.50
2023-02-19T09:33:24.244Z,81.50
2023-02-19T09:35:51.312Z,81.30
2023-02-19T09:38:18.290Z,81.20
2023-02-19T09:40:45.410Z,81.00
2023-02-19T09:43:18.685Z,80.90
2023-02-19T09:45:45.761Z,81.20
2023-02-19T09:48:12.769Z,80.60
2023-02-19T09:50:42.164Z,80.40
2023-02-19T09:53:19.951Z,80.30
2023-02-19T09:55:47.034Z,80.10
2023-02-19T09:58:27.354Z,79.90
2023-02-19T10:00:55.370Z,79.80
2023-02-19T10:03:32.697Z,79.70
2023-02-19T10:06:01.953Z,79.40
2023-02-19T10:08:34.306Z,79.20
2023-02-19T10:11:02.178Z,79.20
2023-02-19T10:13:44.454Z,79.00
2023-02-19T10:16:16.117Z,78.80
2023-02-19T10:18:43.920Z,78.50
2023-02-19T10:21:21.078Z,78.60
2023-02-19T10:23:49.964Z,78.00
2023-02-19T10:26:16.923Z,77.90
2023-02-19T10:28:43.826Z,77.60
2023-02-19T10:31:24.508Z,77.50
2023-02-19T10:33:56.318Z,77.30
2023-02-19T10:36:32.192Z,77.10
2023-02-19T10:39:00.108Z,77.00
2023-02-19T10:41:27.166Z,76.90
2023-02-19T10:44:16.206Z,76.80
2023-02-19T10:46:45.271Z,76.60
2023-02-19T10:49:36.542Z,76.70
2023-02-19T10:52:21.872Z,76.50
2023-02-19T10:54:55.296Z,76.40
2023-02-19T10:57:30.613Z,76.20
2023-02-19T11:00:15.437Z,76.00
2023-02-19T11:02:43.249Z,75.90
2023-02-19T11:05:12.137Z,75.70
2023-02-19T11:07:43.684Z,75.50
2023-02-19T11:10:21.858Z,75.20
2023-02-19T11:12:49.606Z,74.90
2023-02-19T11:15:36.154Z,74.80
2023-02-19T11:18:14.999Z,74.70
2023-02-19T11:20:57.305Z,74.60
2023-02-19T11:23:31.731Z,74.30
2023-02-19T11:26:00.595Z,74.20
2023-02-19T11:28:37.757Z,74.00
2023-02-19T11:31:20.162Z,73.90
2023-02-19T11:34:00.198Z,73.60
2023-02-19T11:36:34.555Z,73.50
2023-02-19T11:39:19.331Z,73.50
2023-02-19T11:41:46.454Z,73.50
2023-02-19T11:44:39.484Z,73.40
2023-02-19T11:47:37.341Z,73.20
2023-02-19T11:50:25.690Z,73.10
2023-02-19T11:53:17.572Z,73.10
2023-02-19T11:55:50.103Z,72.80
2023-02-19T11:58:44.691Z,72.70
2023-02-19T12:01:41.348Z,72.50
2023-02-19T12:04:22.873Z,72.30
2023-02-19T12:07:07.960Z,72.20
2023-02-19T12:09:44.187Z,72.00
2023-02-19T12:12:30.652Z,71.90
2023-02-19T12:15:15.812Z,71.60
2023-02-19T12:18:10.101Z,71.40
2023-02-19T12:20:44.584Z,71.10
2023-02-19T12:23:46.862Z,70.90
2023-02-19T12:26:37.909Z,70.50
2023-02-19T12:29:04.960Z,70.50
2023-02-19T12:35:19.086Z,70.10
2023-02-19T12:38:10.792Z,70.10
2023-02-19T12:40:56.259Z,69.80
2023-02-19T12:43:23.737Z,69.90
2023-02-19T12:45:58.225Z,69.70
2023-02-19T12:48:39.017Z,69.50
2023-02-19T12:51:20.039Z,69.40
2023-02-19T12:53:49.166Z,69.20
2023-02-19T12:56:31.546Z,69.20
2023-02-19T12:59:02.396Z,69.00
2023-02-19T13:01:33.372Z,68.80
2023-02-19T13:04:34.925Z,68.60
2023-02-19T13:07:14.845Z,68.40
2023-02-19T13:09:59.712Z,68.50
2023-02-19T13:12:27.762Z,68.50
2023-02-19T13:15:15.128Z,68.50
2023-02-19T13:17:45.705Z,68.30
2023-02-19T13:20:32.022Z,68.40
2023-02-19T13:23:25.841Z,68.20
2023-02-19T13:26:15.797Z,68.20
2023-02-19T13:29:06.842Z,68.00
2023-02-19T13:31:37.001Z,68.10
2023-02-19T13:34:25.502Z,68.20
2023-02-19T13:36:52.448Z,68.10
2023-02-19T13:39:20.691Z,68.20
2023-02-19T13:41:51.970Z,68.10
2023-02-19T13:44:24.440Z,68.10
2023-02-19T13:46:51.423Z,68.00
2023-02-19T13:49:28.116Z,68.00
2023-02-19T13:51:59.643Z,67.90
2023-02-19T13:54:40.089Z,67.90
2023-02-19T13:57:22.594Z,68.00
2023-02-19T13:59:58.985Z,67.90
2023-02-19T14:02:29.296Z,68.00
2023-02-19T14:05:02.201Z,68.10
2023-02-19T14:07:38.250Z,68.10
2023-02-19T14:10:06.285Z,68.20
2023-02-19T14:12:35.000Z,68.30
2023-02-19T14:15:39.416Z,68.40
2023-02-19T14:18:40.959Z,68.50
2023-02-19T14:21:16.048Z,68.60
2023-02-19T14:23:43.527Z,68.70
2023-02-19T14:26:10.731Z,68.80
2023-02-19T14:28:44.985Z,68.80
2023-02-19T14:31:47.773Z,68.90
2023-02-19T14:34:28.285Z,68.80
2023-02-19T14:37:01.030Z,68.90
2023-02-19T14:39:34.559Z,69.00
2023-02-19T14:42:03.198Z,69.10
2023-02-19T14:44:37.610Z,69.00
2023-02-19T14:47:14.030Z,69.10
2023-02-19T14:49:49.553Z,69.20
2023-02-19T14:52:21.147Z,69.30
2023-02-19T14:54:53.883Z,69.40
2023-02-19T14:57:28.460Z,69.50
2023-02-19T15:00:00.482Z,69.50
2023-02-19T15:02:28.583Z,69.60
2023-02-19T15:04:55.773Z,69.70
2023-02-19T15:07:29.867Z,69.80
2023-02-19T15:10:03.671Z,69.80
2023-02-19T15:12:39.605Z,69.80
2023-02-19T15:15:07.525Z,69.90
2023-02-19T15:17:35.765Z,69.90
2023-02-19T15:20:09.530Z,70.10
2023-02-19T15:22:36.448Z,70.00
2023-02-19T15:25:03.905Z,70.20
2023-02-19T15:27:31.032Z,70.20
2023-02-19T15:29:58.087Z,70.30
2023-02-19T15:32:26.765Z,70.30
2023-02-19T15:35:03.903Z,70.40
2023-02-19T15:37:33.254Z,70.50
2023-02-19T15:40:03.824Z,70.60
2023-02-19T15:42:31.497Z,70.60
2023-02-19T15:45:23.308Z,70.70
2023-02-19T15:47:53.357Z,70.70
2023-02-19T15:50:33.615Z,70.70
2023-02-19T15:53:07.403Z,70.70
2023-02-19T15:55:34.337Z,70.80
2023-02-19T15:58:20.763Z,70.80
2023-02-19T16:00:52.985Z,70.80
2023-02-19T16:03:21.542Z,70.80
2023-02-19T16:06:15.104Z,70.80
2023-02-19T16:09:06.062Z,70.90
2023-02-19T16:11:38.037Z,70.90
2023-02-19T16:14:23.154Z,70.90
2023-02-19T16:16:52.901Z,70.90
2023-02-19T16:19:31.427Z,71.00
2023-02-19T16:21:58.399Z,71.00
2023-02-19T16:24:33.801Z,71.00
2023-02-19T16:27:00.840Z,71.10
2023-02-19T16:29:31.857Z,71.10
2023-02-19T16:32:03.997Z,71.10
2023-02-19T16:34:41.423Z,71.10
2023-02-19T16:37:30.592Z,71.10
2023-02-19T16:40:11.316Z,71.00
2023-02-19T16:42:55.339Z,71.00
2023-02-19T16:45:22.386Z,71.10
2023-02-19T16:47:51.332Z,71.10
2023-02-19T16:50:20.217Z,71.10
2023-02-19T16:52:57.864Z,71.20
2023-02-19T16:55:25.069Z,71.10
2023-02-19T16:57:52.071Z,71.20
2023-02-19T17:00:20.592Z,71.20
2023-02-19T17:02:48.497Z,71.20
2023-02-19T17:05:15.877Z,71.30
2023-02-19T17:07:42.834Z,71.40
2023-02-19T17:10:13.525Z,71.40
2023-02-19T17:12:40.427Z,71.50
2023-02-19T17:15:07.840Z,71.50
2023-02-19T17:17:34.900Z,71.60
2023-02-19T17:20:01.843Z,71.70
2023-02-19T17:22:29.198Z,71.70
2023-02-19T17:24:56.356Z,71.80
2023-02-19T17:27:23.272Z,71.90
2023-02-19T17:29:50.581Z,72.00
2023-02-19T17:32:17.734Z,72.00
2023-02-19T17:34:44.804Z,72.10
2023-02-19T17:37:11.717Z,72.20
2023-02-19T17:39:38.660Z,72.30
2023-02-19T17:42:06.123Z,72.40
2023-02-19T17:44:33.397Z,72.50
2023-02-19T17:47:01.121Z,72.60
2023-02-19T17:49:30.039Z,72.60
2023-02-19T17:51:57.129Z,72.70
2023-02-19T17:54:24.101Z,72.70
2023-02-19T17:56:51.166Z,72.90
2023-02-19T17:59:18.402Z,72.90
2023-02-19T18:01:46.445Z,73.00
2023-02-19T18:04:13.366Z,73.10
2023-02-19T18:06:40.323Z,73.20
2023-02-19T18:09:07.266Z,73.30
2023-02-19T18:11:35.917Z,73.40
2023-02-19T18:14:03.872Z,73.40
2023-02-19T18:16:30.830Z,73.50
2023-02-19T18:19:00.034Z,73.60
2023-02-19T18:21:27.069Z,73.60
2023-02-19T18:23:55.926Z,73.70
2023-02-19T18:26:22.841Z,73.80
2023-02-19T18:28:49.844Z,73.90
2023-02-19T18:31:16.843Z,73.90
2023-02-19T18:33:43.871Z,74.00
2023-02-19T18:36:11.558Z,74.00
2023-02-19T18:38:38.935Z,74.00
2023-02-19T18:41:06.789Z,74.10
2023-02-19T18:43:33.865Z,74.10
2023-02-19T18:46:00.908Z,74.20
2023-02-19T18:48:28.046Z,74.20
2023-02-19T18:50:57.519Z,74.20
2023-02-19T18:53:24.529Z,74.30
2023-02-19T18:55:51.721Z,74.50
2023-02-19T18:58:25.749Z,74.50
2023-02-19T19:00:53.066Z,74.70
2023-02-19T19:03:22.460Z,74.80
2023-02-19T19:05:49.637Z,74.90
2023-02-19T19:08:16.842Z,75.10
2023-02-19T19:10:43.865Z,75.20
2023-02-19T19:13:10.810Z,75.20
2023-02-19T19:15:39.828Z,75.30
2023-02-19T19:18:07.146Z,75.40
2023-02-19T19:20:34.141Z,75.50
2023-02-19T19:23:01.178Z,75.60
2023-02-19T19:25:28.063Z,75.70
2023-02-19T19:27:55.285Z,75.70
2023-02-19T19:30:22.374Z,75.80
2023-02-19T19:32:49.921Z,75.90
2023-02-19T19:35:17.831Z,76.00
2023-02-19T19:37:44.958Z,76.10
2023-02-19T19:40:12.299Z,76.20
2023-02-19T19:42:40.178Z,76.30
2023-02-19T19:45:07.678Z,76.40
2023-02-19T19:47:34.758Z,76.40
2023-02-19T19:50:05.405Z,76.50
2023-02-19T19:52:32.416Z,76.60
2023-02-19T19:54:59.353Z,76.70
2023-02-19T19:57:26.300Z,76.80
2023-02-19T19:59:53.509Z,76.80
2023-02-19T20:02:20.680Z,76.90
2023-02-19T20:04:47.674Z,77.10
2023-02-19T20:07:14.735Z,77.10
2023-02-19T20:09:41.946Z,77.20
2023-02-19T20:12:08.951Z,77.40
2023-02-19T20:14:36.223Z,77.50
2023-02-19T20:17:03.332Z,77.70
2023-02-19T20:19:31.010Z,77.70
2023-02-19T20:21:58.191Z,77.90
2023-02-19T20:24:28.775Z,77.90
2023-02-19T20:26:58.782Z,78.00
2023-02-19T20:29:27.910Z,78.10
2023-02-19T20:31:55.212Z,78.20
2023-02-19T20:34:23.095Z,78.30
2023-02-19T20:36:50.304Z,78.90
2023-02-19T20:39:17.978Z,78.40
2023-02-19T20:41:46.925Z,78.50
2023-02-19T20:44:14.198Z,78.60
2023-02-19T20:46:45.463Z,78.70
2023-02-19T20:49:13.406Z,78.80
2023-02-19T20:52:00.403Z,78.90
2023-02-19T20:54:29.006Z,79.10
2023-02-19T20:56:57.707Z,79.00
2023-02-19T20:59:31.092Z,79.10
2023-02-19T21:01:58.700Z,79.20
2023-02-19T21:04:26.133Z,79.30
2023-02-19T21:06:53.171Z,79.40
2023-02-19T21:09:20.520Z,79.50
2023-02-19T21:11:48.384Z,79.60
2023-02-19T21:14:15.639Z,79.60
2023-02-19T21:16:45.958Z,79.80
2023-02-19T21:19:12.911Z,79.80
2023-02-19T21:21:40.762Z,79.90
2023-02-19T21:24:09.099Z,80.00
2023-02-19T21:26:37.304Z,80.00
2023-02-19T21:29:05.152Z,80.10
2023-02-19T21:31:45.354Z,80.20
2023-02-19T21:34:13.525Z,80.30
2023-02-19T21:36:40.594Z,80.80
2023-02-19T21:39:08.433Z,80.40
2023-02-19T21:41:35.457Z,80.40
2023-02-19T21:44:03.165Z,80.60
2023-02-19T21:46:30.308Z,80.60
2023-02-19T21:48:57.355Z,80.70
2023-02-19T21:51:30.513Z,80.80
2023-02-19T21:53:57.655Z,80.90
2023-02-19T21:56:25.940Z,80.90
2023-02-19T21:58:52.940Z,81.00
2023-02-19T22:01:24.391Z,81.10
2023-02-19T22:03:51.370Z,81.20
2023-02-19T22:06:18.572Z,81.30
2023-02-19T22:08:45.536Z,81.40
2023-02-19T22:11:12.951Z,81.40
2023-02-19T22:13:47.087Z,81.50
2023-02-19T22:16:15.035Z,81.60
2023-02-19T22:18:49.098Z,81.60
2023-02-19T22:21:16.129Z,81.70
2023-02-19T22:23:46.755Z,81.80
2023-02-19T22:26:39.277Z,81.70
2023-02-19T22:29:09.371Z,81.90
2023-02-19T22:31:36.817Z,81.90
2023-02-19T22:34:04.297Z,82.00
2023-02-19T22:36:32.018Z,82.10
2023-02-19T22:39:00.191Z,82.20
2023-02-19T22:41:28.288Z,82.20
2023-02-19T22:43:58.956Z,82.30
2023-02-19T22:46:28.114Z,82.40
2023-02-19T22:48:55.129Z,82.40
2023-02-19T22:51:22.946Z,82.50
2023-02-19T22:53:51.775Z,82.60
2023-02-19T22:56:19.982Z,82.70
2023-02-19T22:58:46.914Z,82.80
2023-02-19T23:01:14.200Z,82.80
2023-02-19T23:03:52.223Z,82.80
2023-02-19T23:06:28.122Z,83.00
2023-02-19T23:08:55.532Z,83.00
2023-02-19T23:11:30.047Z,83.10
2023-02-19T23:13:57.349Z,83.10
2023-02-19T23:16:24.455Z,83.20
2023-02-19T23:18:51.456Z,83.30
2023-02-19T23:21:18.712Z,83.30
2023-02-19T23:23:45.771Z,83.30
2023-02-19T23:26:13.636Z,83.40
2023-02-19T23:28:41.210Z,83.50
2023-02-19T23:31:08.199Z,83.50
2023-02-19T23:33:35.306Z,83.60
2023-02-19T23:36:02.200Z,83.70
2023-02-19T23:38:29.138Z,83.70
2023-02-19T23:40:56.004Z,83.80
2023-02-19T23:43:22.902Z,83.80
2023-02-19T23:45:49.903Z,83.80
2023-02-19T23:48:16.756Z,83.90
2023-02-19T23:50:43.606Z,83.90
2023-02-19T23:53:10.538Z,84.00
2023-02-19T23:55:37.371Z,84.10
2023-02-19T23:58:04.431Z,84.10
